首页
METAR-TAF:

METAR-TAF

机场 :

杰尔, 匈牙利

纬度: 47-37-28N, 经度: 017-48-49E, 海拔: 129米

当前天气观测

该预报发布于34分钟前的07:45 UTC
风速10节,风向西转西北
温度 4°C
湿度 93%
气压 1017 hPa
能见度10公里或以上
1500米以下无云,无积雨云

METAR: LHPR 100745Z 30010KT CAVOK 04/03 Q1017

时间: 09:19 (08:19 UTC)

预报

该预报发布于3小时和4分钟前的05:15 UTC
预报有效从10日的 06点(UTC)到 10日的 15点(UTC)
风速8节,风向西北
能見度: 4000
多云层高于200英尺
轻雾
成为
从 10日的 06点(UTC)到 10日的 09点(UTC)
风速13节,风向北转西北,有时为23节阵风
能见度10公里或以上
多云层高于2000英尺
短暂存在
从 10日的 09点(UTC)到 10日的 15点(UTC)
风速20节,风向北转西北,有时为30节阵风
成为
从 10日的 11点(UTC)到 10日的 14点(UTC)
能见度10公里或以上
1500米以下无云,无积雨云

TAF: LHPR 100515Z 1006/1015 32008KT 4000 BR BKN002 BECMG 1006/1009 33013G23KT 9999 NSW BKN020 TEMPO 1009/1015 34020G30KT BECMG 1011/1014 CAVOK

超过4000个机场的气象观测和天气预报(METAR&TAF报告)。

可查询的气象台以黄色和红色小点在地图上表示。

将鼠标移到小点上方,可查看气象台名称。

然后点击查看天气观测和预报。

如需切换地图:点击带黑十字的绿色按钮放大地图;点击带横线的绿色按钮缩小地图;或者点击绿色箭头查看邻近地区的地图。


METAR-TAF: